sensor_id;sensor_type;location;lat;lon;timestamp;P1;P2;P0;N1;N25;N10
84107;NextPM;74203;50.730;1.626;2023-12-20T00:00:16;9.75;7.20;6.50;89.50;90.00;90.50
84107;NextPM;74203;50.730;1.626;2023-12-20T00:02:24;9.70;7.10;6.40;87.50;88.00;88.50
84107;NextPM;74203;50.730;1.626;2023-12-20T00:04:32;9.35;6.90;6.20;86.50;87.00;87.50
84107;NextPM;74203;50.730;1.626;2023-12-20T00:06:40;9.15;6.75;6.05;84.00;85.00;85.00
84107;NextPM;74203;50.730;1.626;2023-12-20T00:08:48;9.65;7.15;6.40;90.00;91.50;91.50
84107;NextPM;74203;50.730;1.626;2023-12-20T00:10:55;10.50;7.75;7.00;92.50;93.00;93.50
84107;NextPM;74203;50.730;1.626;2023-12-20T00:13:03;10.00;7.40;6.65;93.00;93.50;94.50
84107;NextPM;74203;50.730;1.626;2023-12-20T00:15:11;10.70;7.90;7.10;97.50;98.50;99.00
84107;NextPM;74203;50.730;1.626;2023-12-20T00:17:19;10.60;7.85;7.05;97.50;98.00;99.00
84107;NextPM;74203;50.730;1.626;2023-12-20T00:19:27;10.45;7.70;6.95;95.00;95.50;95.50
84107;NextPM;74203;50.730;1.626;2023-12-20T00:21:35;10.45;7.75;6.95;95.00;96.00;96.50
84107;NextPM;74203;50.730;1.626;2023-12-20T00:23:43;10.10;7.40;6.70;94.00;94.50;95.00
84107;NextPM;74203;50.730;1.626;2023-12-20T00:25:50;10.70;7.90;7.10;97.50;98.50;99.00
84107;NextPM;74203;50.730;1.626;2023-12-20T00:27:58;10.75;7.90;7.15;100.00;101.00;101.00
84107;NextPM;74203;50.730;1.626;2023-12-20T00:30:07;10.60;7.85;7.05;98.00;98.50;99.00
84107;NextPM;74203;50.730;1.626;2023-12-20T00:32:16;10.70;7.95;7.15;99.00;99.50;100.00
84107;NextPM;74203;50.730;1.626;2023-12-20T00:34:24;10.30;7.65;6.85;95.50;96.00;96.00
84107;NextPM;74203;50.730;1.626;2023-12-20T00:36:32;10.40;7.65;6.90;95.50;96.50;96.50
84107;NextPM;74203;50.730;1.626;2023-12-20T00:38:39;10.70;7.95;7.10;101.50;101.50;102.50
84107;NextPM;74203;50.730;1.626;2023-12-20T00:40:47;10.35;7.65;6.85;98.00;98.00;98.50
84107;NextPM;74203;50.730;1.626;2023-12-20T00:42:55;10.85;8.00;7.20;97.50;98.50;98.50
84107;NextPM;74203;50.730;1.626;2023-12-20T00:45:03;11.15;8.25;7.40;100.00;100.50;101.50
84107;NextPM;74203;50.730;1.626;2023-12-20T00:47:12;9.25;6.80;6.15;85.50;86.50;87.00
84107;NextPM;74203;50.730;1.626;2023-12-20T00:49:20;10.00;7.40;6.65;90.50;91.00;91.50
84107;NextPM;74203;50.730;1.626;2023-12-20T00:51:28;9.75;7.20;6.45;89.00;89.50;90.50
84107;NextPM;74203;50.730;1.626;2023-12-20T00:53:35;10.25;7.60;6.85;96.50;97.00;97.50
84107;NextPM;74203;50.730;1.626;2023-12-20T00:55:43;9.95;7.35;6.65;91.00;91.50;92.00
84107;NextPM;74203;50.730;1.626;2023-12-20T00:57:51;9.35;6.90;6.25;88.50;89.00;89.50
84107;NextPM;74203;50.730;1.626;2023-12-20T00:59:59;10.90;8.05;7.25;100.00;101.00;101.50
84107;NextPM;74203;50.730;1.626;2023-12-20T01:02:07;10.10;7.45;6.75;92.50;93.50;94.00
84107;NextPM;74203;50.730;1.626;2023-12-20T01:04:15;9.70;7.20;6.45;88.00;89.00;89.00
84107;NextPM;74203;50.730;1.626;2023-12-20T01:06:23;9.95;7.30;6.60;92.00;93.00;93.00
84107;NextPM;74203;50.730;1.626;2023-12-20T01:08:31;10.00;7.40;6.65;93.00;93.50;94.00
84107;NextPM;74203;50.730;1.626;2023-12-20T01:10:38;10.50;7.75;7.00;97.50;98.50;99.00
84107;NextPM;74203;50.730;1.626;2023-12-20T01:12:46;10.50;7.75;7.00;95.50;96.00;96.50
84107;NextPM;74203;50.730;1.626;2023-12-20T01:14:54;10.35;7.70;6.90;94.50;95.50;95.50
84107;NextPM;74203;50.730;1.626;2023-12-20T01:17:02;10.15;7.45;6.75;93.00;93.50;94.00
84107;NextPM;74203;50.730;1.626;2023-12-20T01:19:10;10.50;7.75;6.95;96.50;97.50;97.50
84107;NextPM;74203;50.730;1.626;2023-12-20T01:21:18;10.20;7.50;6.75;92.50;93.50;93.50
84107;NextPM;74203;50.730;1.626;2023-12-20T01:23:26;10.75;7.95;7.15;99.50;100.50;100.50
84107;NextPM;74203;50.730;1.626;2023-12-20T01:25:34;11.35;8.35;7.50;104.00;104.50;104.50
84107;NextPM;74203;50.730;1.626;2023-12-20T01:27:41;11.10;8.20;7.40;100.00;101.00;101.00
84107;NextPM;74203;50.730;1.626;2023-12-20T01:29:49;11.20;8.25;7.45;99.00;100.00;100.50
84107;NextPM;74203;50.730;1.626;2023-12-20T01:31:57;9.95;7.35;6.65;90.00;91.00;91.00
84107;NextPM;74203;50.730;1.626;2023-12-20T01:34:04;10.05;7.40;6.70;92.00;93.00;93.00
84107;NextPM;74203;50.730;1.626;2023-12-20T01:36:12;9.95;7.35;6.60;89.50;90.00;90.50
84107;NextPM;74203;50.730;1.626;2023-12-20T01:38:20;9.95;7.35;6.60;92.00;92.50;93.00
84107;NextPM;74203;50.730;1.626;2023-12-20T01:40:28;10.35;7.65;6.90;95.50;96.50;96.50
84107;NextPM;74203;50.730;1.626;2023-12-20T01:42:35;11.30;8.35;7.55;102.50;103.50;104.00
84107;NextPM;74203;50.730;1.626;2023-12-20T01:44:43;11.35;8.40;7.55;103.50;104.50;104.50
84107;NextPM;74203;50.730;1.626;2023-12-20T01:46:52;11.05;8.20;7.35;99.00;99.50;100.50
84107;NextPM;74203;50.730;1.626;2023-12-20T01:49:00;12.00;8.85;7.95;110.00;111.00;111.00
84107;NextPM;74203;50.730;1.626;2023-12-20T01:51:09;11.30;8.35;7.50;103.00;104.00;104.00
84107;NextPM;74203;50.730;1.626;2023-12-20T01:53:17;11.65;8.55;7.75;107.50;107.50;108.50
84107;NextPM;74203;50.730;1.626;2023-12-20T01:55:29;11.65;8.60;7.75;108.00;109.00;109.50
84107;NextPM;74203;50.730;1.626;2023-12-20T01:57:40;13.25;9.80;8.85;122.00;123.00;123.50
84107;NextPM;74203;50.730;1.626;2023-12-20T01:59:49;10.65;7.90;7.10;99.50;100.00;100.50
84107;NextPM;74203;50.730;1.626;2023-12-20T02:01:58;11.00;8.15;7.35;99.00;100.00;100.50
84107;NextPM;74203;50.730;1.626;2023-12-20T02:04:07;11.95;8.85;7.90;109.00;109.00;110.00
84107;NextPM;74203;50.730;1.626;2023-12-20T02:06:15;11.40;8.45;7.60;106.00;107.00;107.50
84107;NextPM;74203;50.730;1.626;2023-12-20T02:08:26;10.55;7.80;7.00;99.50;100.00;100.50
84107;NextPM;74203;50.730;1.626;2023-12-20T02:10:33;11.85;8.75;7.90;107.50;108.50;109.00
84107;NextPM;74203;50.730;1.626;2023-12-20T02:12:42;10.95;8.10;7.30;98.50;99.00;99.50
84107;NextPM;74203;50.730;1.626;2023-12-20T02:14:50;10.65;7.90;7.05;99.00;100.00;100.00
84107;NextPM;74203;50.730;1.626;2023-12-20T02:16:58;10.40;7.70;6.90;97.00;98.00;98.50
84107;NextPM;74203;50.730;1.626;2023-12-20T02:19:06;11.15;8.25;7.40;102.00;102.50;103.00
84107;NextPM;74203;50.730;1.626;2023-12-20T02:21:25;10.60;7.85;7.05;102.00;103.00;103.50
84107;NextPM;74203;50.730;1.626;2023-12-20T02:23:39;10.70;7.85;7.10;98.00;99.00;99.50
84107;NextPM;74203;50.730;1.626;2023-12-20T02:25:47;10.85;7.95;7.20;100.00;101.00;101.00
84107;NextPM;74203;50.730;1.626;2023-12-20T02:27:55;9.65;7.10;6.40;89.00;90.00;90.50
84107;NextPM;74203;50.730;1.626;2023-12-20T02:30:03;10.60;7.85;7.05;95.50;95.50;96.50
84107;NextPM;74203;50.730;1.626;2023-12-20T02:32:12;9.85;7.25;6.55;93.00;93.50;94.50
84107;NextPM;74203;50.730;1.626;2023-12-20T02:34:21;10.10;7.45;6.70;90.50;91.50;92.00
84107;NextPM;74203;50.730;1.626;2023-12-20T02:36:28;10.25;7.55;6.85;95.00;95.50;96.50
84107;NextPM;74203;50.730;1.626;2023-12-20T02:38:36;9.90;7.30;6.60;91.50;92.50;92.50
84107;NextPM;74203;50.730;1.626;2023-12-20T02:40:44;10.30;7.60;6.90;95.50;96.00;96.50
84107;NextPM;74203;50.730;1.626;2023-12-20T02:42:52;10.55;7.75;7.00;98.50;100.00;100.50
84107;NextPM;74203;50.730;1.626;2023-12-20T02:45:00;10.00;7.40;6.70;90.00;91.00;91.00
84107;NextPM;74203;50.730;1.626;2023-12-20T02:47:08;10.50;7.75;6.95;101.50;102.00;103.00
84107;NextPM;74203;50.730;1.626;2023-12-20T02:49:15;10.50;7.75;7.00;97.50;98.50;99.00
84107;NextPM;74203;50.730;1.626;2023-12-20T02:51:23;10.35;7.65;6.90;96.00;96.50;97.00
84107;NextPM;74203;50.730;1.626;2023-12-20T02:53:31;11.25;8.30;7.50;104.50;105.50;106.00
84107;NextPM;74203;50.730;1.626;2023-12-20T02:55:39;11.50;8.50;7.65;104.50;105.50;106.00
84107;NextPM;74203;50.730;1.626;2023-12-20T02:57:47;11.20;8.25;7.40;103.00;104.00;104.50
84107;NextPM;74203;50.730;1.626;2023-12-20T02:59:55;10.45;7.70;6.95;95.50;96.00;96.50
84107;NextPM;74203;50.730;1.626;2023-12-20T03:02:03;10.50;7.75;7.00;98.00;99.00;99.00
84107;NextPM;74203;50.730;1.626;2023-12-20T03:04:11;11.35;8.40;7.55;102.00;102.50;103.50
84107;NextPM;74203;50.730;1.626;2023-12-20T03:06:19;10.90;8.10;7.25;100.50;101.00;102.00
84107;NextPM;74203;50.730;1.626;2023-12-20T03:08:27;10.20;7.50;6.75;96.50;97.50;97.50
84107;NextPM;74203;50.730;1.626;2023-12-20T03:10:35;10.30;7.60;6.85;94.00;94.50;95.50
84107;NextPM;74203;50.730;1.626;2023-12-20T03:12:42;10.70;7.90;7.15;99.00;100.00;100.00
84107;NextPM;74203;50.730;1.626;2023-12-20T03:14:50;10.45;7.75;6.95;96.50;97.00;97.50
84107;NextPM;74203;50.730;1.626;2023-12-20T03:16:58;10.60;7.85;7.00;97.50;98.00;98.00
84107;NextPM;74203;50.730;1.626;2023-12-20T03:19:06;10.55;7.80;7.05;100.50;101.50;102.00
84107;NextPM;74203;50.730;1.626;2023-12-20T03:21:14;10.85;8.00;7.20;97.50;98.50;98.50
84107;NextPM;74203;50.730;1.626;2023-12-20T03:23:22;10.70;7.90;7.10;98.50;99.00;99.50
84107;NextPM;74203;50.730;1.626;2023-12-20T03:25:29;10.30;7.65;6.85;94.50;95.50;95.50
84107;NextPM;74203;50.730;1.626;2023-12-20T03:27:39;10.50;7.75;7.00;97.00;97.00;98.00
84107;NextPM;74203;50.730;1.626;2023-12-20T03:29:46;11.20;8.30;7.45;98.50;98.50;99.00
84107;NextPM;74203;50.730;1.626;2023-12-20T03:31:54;10.70;7.90;7.10;99.00;100.00;100.00
84107;NextPM;74203;50.730;1.626;2023-12-20T03:34:02;11.95;8.85;7.95;108.50;109.50;110.50
84107;NextPM;74203;50.730;1.626;2023-12-20T03:36:10;12.05;8.90;8.05;108.00;109.00;109.50
84107;NextPM;74203;50.730;1.626;2023-12-20T03:38:18;12.20;9.00;8.10;111.50;112.00;112.50
84107;NextPM;74203;50.730;1.626;2023-12-20T03:40:26;11.25;8.30;7.50;99.00;100.00;100.50
84107;NextPM;74203;50.730;1.626;2023-12-20T03:42:34;11.25;8.35;7.50;103.50;104.50;105.00
84107;NextPM;74203;50.730;1.626;2023-12-20T03:44:41;11.50;8.45;7.65;106.00;107.50;107.50
84107;NextPM;74203;50.730;1.626;2023-12-20T03:46:49;10.50;7.70;7.00;93.50;94.50;95.00
84107;NextPM;74203;50.730;1.626;2023-12-20T03:48:57;10.90;8.05;7.25;99.50;99.50;100.50
84107;NextPM;74203;50.730;1.626;2023-12-20T03:51:05;10.55;7.80;7.05;95.50;96.50;97.00
84107;NextPM;74203;50.730;1.626;2023-12-20T03:53:13;10.90;8.05;7.25;96.50;97.50;98.00
84107;NextPM;74203;50.730;1.626;2023-12-20T03:55:20;11.30;8.35;7.55;105.50;106.50;107.00
84107;NextPM;74203;50.730;1.626;2023-12-20T03:57:28;11.60;8.60;7.70;104.00;104.50;105.00
84107;NextPM;74203;50.730;1.626;2023-12-20T03:59:37;11.00;8.10;7.30;105.00;106.00;106.00
84107;NextPM;74203;50.730;1.626;2023-12-20T04:01:45;10.95;8.10;7.25;99.00;100.00;100.00
84107;NextPM;74203;50.730;1.626;2023-12-20T04:03:53;10.95;8.05;7.30;100.50;101.50;101.50
84107;NextPM;74203;50.730;1.626;2023-12-20T04:06:00;10.65;7.85;7.05;101.50;102.00;102.50
84107;NextPM;74203;50.730;1.626;2023-12-20T04:08:08;11.35;8.40;7.60;106.50;107.00;107.50
84107;NextPM;74203;50.730;1.626;2023-12-20T04:10:17;11.25;8.35;7.50;100.50;101.50;102.00
84107;NextPM;74203;50.730;1.626;2023-12-20T04:12:24;10.95;8.05;7.25;100.50;101.00;101.50
84107;NextPM;74203;50.730;1.626;2023-12-20T04:14:33;11.30;8.35;7.50;99.50;100.50;101.00
84107;NextPM;74203;50.730;1.626;2023-12-20T04:16:40;11.85;8.70;7.85;108.00;108.50;109.00
84107;NextPM;74203;50.730;1.626;2023-12-20T04:18:48;12.70;9.40;8.45;116.50;117.00;117.50
84107;NextPM;74203;50.730;1.626;2023-12-20T04:20:56;10.25;7.55;6.80;96.00;97.00;97.50
84107;NextPM;74203;50.730;1.626;2023-12-20T04:23:04;10.20;7.55;6.75;90.50;90.50;91.50
84107;NextPM;74203;50.730;1.626;2023-12-20T04:25:12;11.15;8.20;7.40;101.00;102.00;102.50
84107;NextPM;74203;50.730;1.626;2023-12-20T04:27:19;10.20;7.50;6.80;94.50;94.50;95.50
84107;NextPM;74203;50.730;1.626;2023-12-20T04:29:27;11.10;8.20;7.35;102.50;103.50;103.50
84107;NextPM;74203;50.730;1.626;2023-12-20T04:31:35;10.10;7.45;6.70;94.00;94.00;94.50
84107;NextPM;74203;50.730;1.626;2023-12-20T04:33:42;10.95;8.15;7.30;98.50;99.50;100.00
84107;NextPM;74203;50.730;1.626;2023-12-20T04:35:50;11.65;8.60;7.75;103.00;104.50;104.50
84107;NextPM;74203;50.730;1.626;2023-12-20T04:37:58;10.95;8.10;7.30;98.00;99.00;99.00
84107;NextPM;74203;50.730;1.626;2023-12-20T04:40:07;11.20;8.25;7.45;103.00;103.50;104.00
84107;NextPM;74203;50.730;1.626;2023-12-20T04:42:15;11.25;8.30;7.45;103.00;104.00;104.50
84107;NextPM;74203;50.730;1.626;2023-12-20T04:44:23;12.70;9.40;8.45;115.50;116.50;117.00
84107;NextPM;74203;50.730;1.626;2023-12-20T04:46:31;11.25;8.30;7.50;103.50;104.00;105.00
84107;NextPM;74203;50.730;1.626;2023-12-20T04:48:38;11.55;8.55;7.65;107.00;107.50;108.50
84107;NextPM;74203;50.730;1.626;2023-12-20T04:50:46;11.45;8.45;7.60;104.50;105.00;105.50
84107;NextPM;74203;50.730;1.626;2023-12-20T04:52:54;11.80;8.75;7.85;106.50;107.00;108.00
84107;NextPM;74203;50.730;1.626;2023-12-20T04:55:02;11.25;8.30;7.50;101.00;101.50;102.00
84107;NextPM;74203;50.730;1.626;2023-12-20T04:57:11;11.30;8.35;7.50;107.00;107.50;108.00
84107;NextPM;74203;50.730;1.626;2023-12-20T04:59:19;12.05;8.90;8.00;109.50;110.50;111.00
84107;NextPM;74203;50.730;1.626;2023-12-20T05:01:27;11.80;8.75;7.85;106.50;107.50;108.50
84107;NextPM;74203;50.730;1.626;2023-12-20T05:03:35;11.50;8.50;7.65;103.50;104.50;105.00
84107;NextPM;74203;50.730;1.626;2023-12-20T05:05:43;11.20;8.25;7.40;102.50;103.00;104.00
84107;NextPM;74203;50.730;1.626;2023-12-20T05:07:51;11.85;8.80;7.90;110.50;111.00;111.50
84107;NextPM;74203;50.730;1.626;2023-12-20T05:09:58;10.80;8.00;7.20;103.00;104.00;104.00
84107;NextPM;74203;50.730;1.626;2023-12-20T05:12:07;12.10;8.95;8.05;109.00;110.00;110.50
84107;NextPM;74203;50.730;1.626;2023-12-20T05:14:15;11.35;8.40;7.55;106.00;107.00;107.00
84107;NextPM;74203;50.730;1.626;2023-12-20T05:16:23;10.90;8.05;7.25;101.00;101.50;102.50
84107;NextPM;74203;50.730;1.626;2023-12-20T05:18:31;11.50;8.45;7.65;103.50;104.50;104.50
84107;NextPM;74203;50.730;1.626;2023-12-20T05:20:39;11.15;8.25;7.40;101.00;102.00;102.50
84107;NextPM;74203;50.730;1.626;2023-12-20T05:22:47;12.05;8.90;8.05;111.00;112.00;112.50
84107;NextPM;74203;50.730;1.626;2023-12-20T05:24:55;11.45;8.50;7.60;104.00;105.00;105.00
84107;NextPM;74203;50.730;1.626;2023-12-20T05:27:03;11.50;8.50;7.60;102.50;103.50;103.50
84107;NextPM;74203;50.730;1.626;2023-12-20T05:29:11;10.60;7.80;7.05;99.00;99.00;100.00
84107;NextPM;74203;50.730;1.626;2023-12-20T05:31:19;10.75;7.90;7.15;102.00;103.00;103.00
84107;NextPM;74203;50.730;1.626;2023-12-20T05:33:26;11.05;8.20;7.35;99.00;99.50;100.00
84107;NextPM;74203;50.730;1.626;2023-12-20T05:35:34;11.10;8.20;7.40;101.50;102.50;103.50
84107;NextPM;74203;50.730;1.626;2023-12-20T05:37:42;12.40;9.15;8.25;113.50;114.50;115.00
84107;NextPM;74203;50.730;1.626;2023-12-20T05:39:50;11.35;8.40;7.55;103.00;104.00;105.00
84107;NextPM;74203;50.730;1.626;2023-12-20T05:41:57;12.40;9.10;8.25;114.00;115.00;115.50
84107;NextPM;74203;50.730;1.626;2023-12-20T05:44:05;11.45;8.45;7.60;108.00;109.00;109.50
84107;NextPM;74203;50.730;1.626;2023-12-20T05:46:13;12.75;9.40;8.45;112.50;113.50;114.00
84107;NextPM;74203;50.730;1.626;2023-12-20T05:48:21;11.65;8.60;7.75;104.50;105.50;105.50
84107;NextPM;74203;50.730;1.626;2023-12-20T05:50:29;10.80;8.00;7.20;102.50;103.00;103.50
84107;NextPM;74203;50.730;1.626;2023-12-20T05:52:37;11.45;8.45;7.65;104.00;105.00;105.00
84107;NextPM;74203;50.730;1.626;2023-12-20T05:54:44;11.80;8.70;7.80;104.50;104.50;105.50
84107;NextPM;74203;50.730;1.626;2023-12-20T05:56:52;11.45;8.45;7.60;99.50;100.50;101.50
84107;NextPM;74203;50.730;1.626;2023-12-20T05:59:00;12.30;9.10;8.15;111.50;112.00;113.00
84107;NextPM;74203;50.730;1.626;2023-12-20T06:01:08;11.90;8.75;7.90;108.00;109.00;109.50
84107;NextPM;74203;50.730;1.626;2023-12-20T06:03:15;11.45;8.50;7.60;103.00;103.00;103.50
84107;NextPM;74203;50.730;1.626;2023-12-20T06:05:23;12.50;9.25;8.30;113.50;114.50;114.50
84107;NextPM;74203;50.730;1.626;2023-12-20T06:07:31;11.90;8.80;7.90;104.00;104.50;105.50
84107;NextPM;74203;50.730;1.626;2023-12-20T06:09:39;12.10;8.90;8.00;111.00;111.50;112.00
84107;NextPM;74203;50.730;1.626;2023-12-20T06:11:47;12.00;8.90;8.00;108.00;109.00;109.00
84107;NextPM;74203;50.730;1.626;2023-12-20T06:13:54;11.90;8.80;7.95;105.50;106.50;106.50
84107;NextPM;74203;50.730;1.626;2023-12-20T06:16:02;12.15;8.95;8.05;108.00;109.50;110.00
84107;NextPM;74203;50.730;1.626;2023-12-20T06:18:12;12.65;9.35;8.45;117.00;118.00;118.00
84107;NextPM;74203;50.730;1.626;2023-12-20T06:20:19;11.50;8.55;7.65;106.50;107.00;107.50
84107;NextPM;74203;50.730;1.626;2023-12-20T06:22:27;11.95;8.80;8.00;109.50;110.00;111.00
84107;NextPM;74203;50.730;1.626;2023-12-20T06:24:35;11.65;8.60;7.75;106.00;106.50;107.00
84107;NextPM;74203;50.730;1.626;2023-12-20T06:26:43;12.10;8.90;8.05;108.00;108.00;109.00
84107;NextPM;74203;50.730;1.626;2023-12-20T06:28:50;12.65;9.30;8.40;114.50;114.50;115.50
84107;NextPM;74203;50.730;1.626;2023-12-20T06:30:58;13.05;9.65;8.70;118.50;119.50;119.50
84107;NextPM;74203;50.730;1.626;2023-12-20T06:33:06;11.90;8.80;7.90;110.50;111.50;112.00
84107;NextPM;74203;50.730;1.626;2023-12-20T06:35:14;12.40;9.15;8.20;113.00;114.00;114.50
84107;NextPM;74203;50.730;1.626;2023-12-20T06:37:22;12.20;9.00;8.10;111.50;112.50;113.00
84107;NextPM;74203;50.730;1.626;2023-12-20T06:39:30;12.05;8.90;8.00;105.00;106.50;107.00
84107;NextPM;74203;50.730;1.626;2023-12-20T06:41:38;13.05;9.60;8.70;117.50;118.50;119.00
84107;NextPM;74203;50.730;1.626;2023-12-20T06:43:45;12.50;9.25;8.35;114.50;115.50;115.50
84107;NextPM;74203;50.730;1.626;2023-12-20T06:45:53;11.50;8.55;7.70;102.00;103.50;103.50
84107;NextPM;74203;50.730;1.626;2023-12-20T06:48:01;13.15;9.65;8.70;117.00;118.50;118.50
84107;NextPM;74203;50.730;1.626;2023-12-20T06:50:10;12.05;8.95;8.05;111.50;112.00;112.50
84107;NextPM;74203;50.730;1.626;2023-12-20T06:52:18;12.95;9.55;8.60;114.50;115.50;116.00
84107;NextPM;74203;50.730;1.626;2023-12-20T06:54:26;12.25;9.05;8.15;110.50;111.50;111.50
84107;NextPM;74203;50.730;1.626;2023-12-20T06:56:33;12.35;9.10;8.20;114.50;115.50;115.50
84107;NextPM;74203;50.730;1.626;2023-12-20T06:58:41;12.35;9.10;8.20;111.50;112.50;112.50
84107;NextPM;74203;50.730;1.626;2023-12-20T07:00:49;12.60;9.30;8.40;114.50;115.50;116.50
84107;NextPM;74203;50.730;1.626;2023-12-20T07:02:57;12.95;9.55;8.60;118.00;118.50;119.50
84107;NextPM;74203;50.730;1.626;2023-12-20T07:05:05;13.45;9.95;8.95;122.00;122.50;123.00
84107;NextPM;74203;50.730;1.626;2023-12-20T07:07:14;12.55;9.30;8.35;116.00;117.00;118.00
84107;NextPM;74203;50.730;1.626;2023-12-20T07:09:22;13.10;9.70;8.70;120.00;120.50;121.00
84107;NextPM;74203;50.730;1.626;2023-12-20T07:11:29;12.35;9.10;8.20;112.00;113.00;113.00
84107;NextPM;74203;50.730;1.626;2023-12-20T07:13:37;14.35;10.60;9.55;127.00;128.00;128.50
84107;NextPM;74203;50.730;1.626;2023-12-20T07:15:45;13.65;10.10;9.10;127.00;127.50;128.00
84107;NextPM;74203;50.730;1.626;2023-12-20T07:17:53;13.35;9.85;8.85;124.50;126.00;127.00
84107;NextPM;74203;50.730;1.626;2023-12-20T07:20:00;13.45;9.95;8.95;122.00;123.00;124.00
84107;NextPM;74203;50.730;1.626;2023-12-20T07:22:09;14.50;10.70;9.65;130.00;131.00;131.50
84107;NextPM;74203;50.730;1.626;2023-12-20T07:24:16;13.95;10.25;9.30;123.00;124.00;124.50
84107;NextPM;74203;50.730;1.626;2023-12-20T07:26:24;14.40;10.65;9.60;128.50;130.00;130.00
84107;NextPM;74203;50.730;1.626;2023-12-20T07:28:32;13.15;9.70;8.75;118.50;119.50;119.50
84107;NextPM;74203;50.730;1.626;2023-12-20T07:30:39;13.45;9.95;8.95;119.00;120.00;121.00
84107;NextPM;74203;50.730;1.626;2023-12-20T07:32:48;12.55;9.25;8.35;114.00;114.50;115.50
84107;NextPM;74203;50.730;1.626;2023-12-20T07:34:55;11.65;8.60;7.75;108.50;109.50;110.50
84107;NextPM;74203;50.730;1.626;2023-12-20T07:37:03;12.55;9.25;8.35;114.50;115.50;115.50
84107;NextPM;74203;50.730;1.626;2023-12-20T07:39:11;12.65;9.35;8.40;115.50;116.50;117.00
84107;NextPM;74203;50.730;1.626;2023-12-20T07:41:19;12.50;9.25;8.30;113.50;114.50;115.00
84107;NextPM;74203;50.730;1.626;2023-12-20T07:43:27;13.35;9.85;8.85;122.50;123.50;124.00
84107;NextPM;74203;50.730;1.626;2023-12-20T21:57:11;83.20;32.25;18.55;252.00;254.50;255.50
84107;NextPM;74203;50.730;1.626;2023-12-20T22:03:27;24.20;17.90;16.10;223.00;224.50;225.00
84107;NextPM;74203;50.730;1.626;2023-12-20T22:05:36;23.35;17.25;15.50;209.50;211.00;212.00
84107;NextPM;74203;50.730;1.626;2023-12-20T22:07:44;31.70;20.05;15.65;215.50;217.50;218.00
84107;NextPM;74203;50.730;1.626;2023-12-20T22:09:52;32.40;21.20;15.80;217.50;219.00;220.00
84107;NextPM;74203;50.730;1.626;2023-12-20T22:12:00;24.60;18.15;16.40;225.50;227.00;227.50
84107;NextPM;74203;50.730;1.626;2023-12-20T22:14:08;25.00;18.45;16.65;231.50;232.50;233.50
84107;NextPM;74203;50.730;1.626;2023-12-20T22:16:15;25.40;18.80;16.95;235.00;236.50;237.00
84107;NextPM;74203;50.730;1.626;2023-12-20T22:18:23;26.55;19.65;17.70;246.00;248.00;249.00
84107;NextPM;74203;50.730;1.626;2023-12-20T22:20:31;28.45;21.05;18.95;259.50;261.00;262.00
84107;NextPM;74203;50.730;1.626;2023-12-20T22:22:39;27.25;20.15;18.15;257.50;259.50;260.00
84107;NextPM;74203;50.730;1.626;2023-12-20T22:24:48;27.15;20.10;18.05;251.50;253.50;254.50
84107;NextPM;74203;50.730;1.626;2023-12-20T22:26:55;27.55;20.35;18.35;255.50;257.50;258.50
84107;NextPM;74203;50.730;1.626;2023-12-20T22:29:03;26.45;19.55;17.60;243.50;245.50;246.50
84107;NextPM;74203;50.730;1.626;2023-12-20T22:31:11;25.65;18.95;17.10;232.00;234.50;235.50
84107;NextPM;74203;50.730;1.626;2023-12-20T22:33:18;26.70;19.70;17.80;248.00;250.00;251.00
84107;NextPM;74203;50.730;1.626;2023-12-20T22:35:27;24.75;18.35;16.50;228.00;230.00;231.00
84107;NextPM;74203;50.730;1.626;2023-12-20T22:37:35;25.40;18.80;16.90;238.00;240.00;241.00
84107;NextPM;74203;50.730;1.626;2023-12-20T22:39:43;24.30;18.00;16.20;228.00;229.50;230.00
84107;NextPM;74203;50.730;1.626;2023-12-20T22:41:50;26.85;19.85;17.90;245.50;247.50;248.50
84107;NextPM;74203;50.730;1.626;2023-12-20T22:43:58;25.55;18.85;17.00;232.50;234.50;235.50
84107;NextPM;74203;50.730;1.626;2023-12-20T22:46:06;25.55;18.85;17.00;237.00;239.00;240.00
84107;NextPM;74203;50.730;1.626;2023-12-20T22:48:13;25.85;19.15;17.25;243.50;245.50;246.50
84107;NextPM;74203;50.730;1.626;2023-12-20T22:50:21;26.55;19.65;17.70;237.50;240.00;241.00
84107;NextPM;74203;50.730;1.626;2023-12-20T22:52:28;26.35;19.50;17.55;240.00;241.00;242.00
84107;NextPM;74203;50.730;1.626;2023-12-20T22:54:36;27.20;20.10;18.15;248.50;250.50;252.00
84107;NextPM;74203;50.730;1.626;2023-12-20T22:56:43;26.60;19.70;17.75;243.00;244.50;245.00
84107;NextPM;74203;50.730;1.626;2023-12-20T22:58:51;26.60;19.65;17.70;241.50;243.50;244.50
84107;NextPM;74203;50.730;1.626;2023-12-20T23:00:59;25.10;18.60;16.70;231.00;232.50;233.50
84107;NextPM;74203;50.730;1.626;2023-12-20T23:03:06;27.05;20.00;18.00;250.50;252.00;253.00
84107;NextPM;74203;50.730;1.626;2023-12-20T23:05:14;26.15;19.35;17.45;240.00;242.00;243.00
84107;NextPM;74203;50.730;1.626;2023-12-20T23:07:22;25.70;19.05;17.15;234.50;236.50;237.50
84107;NextPM;74203;50.730;1.626;2023-12-20T23:09:30;25.95;19.20;17.30;243.00;245.00;246.00
84107;NextPM;74203;50.730;1.626;2023-12-20T23:11:38;26.85;19.85;17.85;247.50;249.00;250.00
84107;NextPM;74203;50.730;1.626;2023-12-20T23:13:45;25.95;19.15;17.30;239.50;241.50;242.50
84107;NextPM;74203;50.730;1.626;2023-12-20T23:15:53;27.40;20.25;18.25;248.00;250.00;251.50
84107;NextPM;74203;50.730;1.626;2023-12-20T23:18:01;25.55;18.90;17.05;235.50;237.50;238.50
84107;NextPM;74203;50.730;1.626;2023-12-20T23:20:09;25.85;19.10;17.25;237.00;239.00;240.00
84107;NextPM;74203;50.730;1.626;2023-12-20T23:22:18;25.45;18.80;16.95;236.00;237.50;238.50
84107;NextPM;74203;50.730;1.626;2023-12-20T23:24:26;28.05;20.70;18.70;256.50;258.50;259.50
84107;NextPM;74203;50.730;1.626;2023-12-20T23:26:34;26.25;19.45;17.50;237.50;239.50;241.00
84107;NextPM;74203;50.730;1.626;2023-12-20T23:28:42;26.70;19.75;17.75;243.50;245.50;246.50
84107;NextPM;74203;50.730;1.626;2023-12-20T23:30:49;27.00;19.95;18.00;244.00;247.00;248.00
84107;NextPM;74203;50.730;1.626;2023-12-20T23:32:57;26.20;19.40;17.40;240.50;242.00;243.00
84107;NextPM;74203;50.730;1.626;2023-12-20T23:35:05;26.05;19.30;17.35;237.00;239.00;240.00
84107;NextPM;74203;50.730;1.626;2023-12-20T23:37:13;26.15;19.35;17.45;244.00;245.50;246.50
84107;NextPM;74203;50.730;1.626;2023-12-20T23:39:21;26.85;19.80;17.90;240.50;242.50;243.50
84107;NextPM;74203;50.730;1.626;2023-12-20T23:41:29;25.25;18.65;16.80;232.00;234.00;235.00
